sensor_id;sensor_type;location;lat;lon;timestamp;P1;durP1;ratioP1;P2;durP2;ratioP2
71351;SDS011;59159;51.652;4.864;2023-05-07T00:02:10;4.00;;;1.33;;
71351;SDS011;59159;51.652;4.864;2023-05-07T00:04:36;4.90;;;1.30;;
71351;SDS011;59159;51.652;4.864;2023-05-07T00:07:03;4.10;;;1.20;;
71351;SDS011;59159;51.652;4.864;2023-05-07T00:09:30;3.50;;;1.00;;
71351;SDS011;59159;51.652;4.864;2023-05-07T00:11:56;5.13;;;2.00;;
71351;SDS011;59159;51.652;4.864;2023-05-07T00:14:22;4.47;;;1.60;;
71351;SDS011;59159;51.652;4.864;2023-05-07T00:16:48;5.63;;;1.60;;
71351;SDS011;59159;51.652;4.864;2023-05-07T00:19:14;3.33;;;1.00;;
71351;SDS011;59159;51.652;4.864;2023-05-07T00:21:40;5.82;;;1.70;;
71351;SDS011;59159;51.652;4.864;2023-05-07T00:24:06;6.03;;;1.60;;
71351;SDS011;59159;51.652;4.864;2023-05-07T00:26:32;6.37;;;1.83;;
71351;SDS011;59159;51.652;4.864;2023-05-07T00:28:58;5.00;;;1.27;;
71351;SDS011;59159;51.652;4.864;2023-05-07T00:31:24;5.70;;;1.42;;
71351;SDS011;59159;51.652;4.864;2023-05-07T00:33:50;4.23;;;1.10;;
71351;SDS011;59159;51.652;4.864;2023-05-07T00:36:16;5.40;;;1.10;;
71351;SDS011;59159;51.652;4.864;2023-05-07T00:38:42;4.15;;;1.17;;
71351;SDS011;59159;51.652;4.864;2023-05-07T00:41:08;3.93;;;1.30;;
71351;SDS011;59159;51.652;4.864;2023-05-07T00:43:34;3.95;;;0.90;;
71351;SDS011;59159;51.652;4.864;2023-05-07T00:46:00;3.90;;;1.30;;
71351;SDS011;59159;51.652;4.864;2023-05-07T00:48:26;4.53;;;1.25;;
71351;SDS011;59159;51.652;4.864;2023-05-07T00:50:52;5.17;;;1.50;;
71351;SDS011;59159;51.652;4.864;2023-05-07T00:53:18;4.72;;;1.40;;
71351;SDS011;59159;51.652;4.864;2023-05-07T00:55:44;4.97;;;1.52;;
71351;SDS011;59159;51.652;4.864;2023-05-07T00:58:10;3.53;;;1.10;;
71351;SDS011;59159;51.652;4.864;2023-05-07T01:00:36;4.18;;;1.40;;
71351;SDS011;59159;51.652;4.864;2023-05-07T01:03:02;3.78;;;1.10;;
71351;SDS011;59159;51.652;4.864;2023-05-07T01:05:29;3.90;;;1.00;;
71351;SDS011;59159;51.652;4.864;2023-05-07T01:07:55;4.13;;;1.10;;
71351;SDS011;59159;51.652;4.864;2023-05-07T01:10:22;3.80;;;1.05;;
71351;SDS011;59159;51.652;4.864;2023-05-07T01:12:49;4.57;;;1.20;;
71351;SDS011;59159;51.652;4.864;2023-05-07T01:15:15;4.50;;;1.50;;
71351;SDS011;59159;51.652;4.864;2023-05-07T01:17:42;4.32;;;1.10;;
71351;SDS011;59159;51.652;4.864;2023-05-07T01:20:08;5.13;;;1.33;;
71351;SDS011;59159;51.652;4.864;2023-05-07T01:22:39;4.73;;;1.47;;
71351;SDS011;59159;51.652;4.864;2023-05-07T01:25:05;3.33;;;1.00;;
71351;SDS011;59159;51.652;4.864;2023-05-07T01:27:35;4.78;;;1.63;;
71351;SDS011;59159;51.652;4.864;2023-05-07T01:30:02;5.00;;;1.30;;
71351;SDS011;59159;51.652;4.864;2023-05-07T01:35:07;4.22;;;1.40;;
71351;SDS011;59159;51.652;4.864;2023-05-07T01:37:35;5.45;;;1.30;;
71351;SDS011;59159;51.652;4.864;2023-05-07T01:40:01;4.53;;;1.40;;
71351;SDS011;59159;51.652;4.864;2023-05-07T01:42:28;4.20;;;1.50;;
71351;SDS011;59159;51.652;4.864;2023-05-07T01:44:54;4.28;;;1.50;;
71351;SDS011;59159;51.652;4.864;2023-05-07T01:47:20;3.60;;;1.40;;
71351;SDS011;59159;51.652;4.864;2023-05-07T01:49:47;3.20;;;1.00;;
71351;SDS011;59159;51.652;4.864;2023-05-07T01:52:13;3.63;;;1.27;;
71351;SDS011;59159;51.652;4.864;2023-05-07T01:54:39;5.63;;;1.60;;
71351;SDS011;59159;51.652;4.864;2023-05-07T01:57:05;3.55;;;1.17;;
71351;SDS011;59159;51.652;4.864;2023-05-07T01:59:31;4.40;;;1.40;;
71351;SDS011;59159;51.652;4.864;2023-05-07T02:01:57;4.05;;;1.30;;
71351;SDS011;59159;51.652;4.864;2023-05-07T02:04:23;4.30;;;1.17;;
71351;SDS011;59159;51.652;4.864;2023-05-07T02:06:49;4.95;;;1.20;;
71351;SDS011;59159;51.652;4.864;2023-05-07T02:09:15;3.20;;;1.00;;
71351;SDS011;59159;51.652;4.864;2023-05-07T02:11:41;3.93;;;1.10;;
71351;SDS011;59159;51.652;4.864;2023-05-07T02:14:07;5.50;;;1.50;;
71351;SDS011;59159;51.652;4.864;2023-05-07T02:16:33;4.30;;;1.20;;
71351;SDS011;59159;51.652;4.864;2023-05-07T02:18:59;4.03;;;1.37;;
71351;SDS011;59159;51.652;4.864;2023-05-07T02:21:25;3.97;;;1.23;;
71351;SDS011;59159;51.652;4.864;2023-05-07T02:23:51;4.30;;;1.20;;
71351;SDS011;59159;51.652;4.864;2023-05-07T02:26:17;4.57;;;1.27;;
71351;SDS011;59159;51.652;4.864;2023-05-07T02:28:44;4.10;;;1.23;;
71351;SDS011;59159;51.652;4.864;2023-05-07T02:31:10;4.25;;;1.40;;
71351;SDS011;59159;51.652;4.864;2023-05-07T02:33:36;3.35;;;1.02;;
71351;SDS011;59159;51.652;4.864;2023-05-07T02:36:11;3.60;;;1.07;;
71351;SDS011;59159;51.652;4.864;2023-05-07T02:38:37;3.72;;;1.17;;
71351;SDS011;59159;51.652;4.864;2023-05-07T02:41:03;3.05;;;1.17;;
71351;SDS011;59159;51.652;4.864;2023-05-07T02:43:29;4.00;;;1.43;;
71351;SDS011;59159;51.652;4.864;2023-05-07T02:46:05;4.35;;;1.23;;
71351;SDS011;59159;51.652;4.864;2023-05-07T02:48:31;3.97;;;1.02;;
71351;SDS011;59159;51.652;4.864;2023-05-07T02:50:58;4.57;;;1.30;;
71351;SDS011;59159;51.652;4.864;2023-05-07T02:53:24;3.43;;;1.20;;
71351;SDS011;59159;51.652;4.864;2023-05-07T02:55:54;4.65;;;1.10;;
71351;SDS011;59159;51.652;4.864;2023-05-07T02:58:20;4.30;;;1.45;;
71351;SDS011;59159;51.652;4.864;2023-05-07T03:00:48;4.30;;;1.10;;
71351;SDS011;59159;51.652;4.864;2023-05-07T03:03:14;3.35;;;1.00;;
71351;SDS011;59159;51.652;4.864;2023-05-07T03:05:40;3.83;;;1.20;;
71351;SDS011;59159;51.652;4.864;2023-05-07T03:08:06;6.03;;;1.50;;
71351;SDS011;59159;51.652;4.864;2023-05-07T03:10:32;4.10;;;1.30;;
71351;SDS011;59159;51.652;4.864;2023-05-07T03:12:59;4.20;;;1.10;;
71351;SDS011;59159;51.652;4.864;2023-05-07T03:15:25;5.00;;;1.38;;
71351;SDS011;59159;51.652;4.864;2023-05-07T03:17:51;3.73;;;1.30;;
71351;SDS011;59159;51.652;4.864;2023-05-07T03:20:17;4.72;;;1.35;;
71351;SDS011;59159;51.652;4.864;2023-05-07T03:22:43;4.15;;;1.20;;
71351;SDS011;59159;51.652;4.864;2023-05-07T03:25:09;3.53;;;1.00;;
71351;SDS011;59159;51.652;4.864;2023-05-07T03:27:35;4.07;;;1.20;;
71351;SDS011;59159;51.652;4.864;2023-05-07T03:30:01;4.45;;;1.30;;
71351;SDS011;59159;51.652;4.864;2023-05-07T03:32:27;3.43;;;1.13;;
71351;SDS011;59159;51.652;4.864;2023-05-07T03:34:53;3.95;;;1.10;;
71351;SDS011;59159;51.652;4.864;2023-05-07T03:37:19;4.88;;;1.33;;
71351;SDS011;59159;51.652;4.864;2023-05-07T03:39:46;3.42;;;1.15;;
71351;SDS011;59159;51.652;4.864;2023-05-07T03:42:13;5.63;;;1.53;;
71351;SDS011;59159;51.652;4.864;2023-05-07T03:44:39;4.10;;;1.38;;
71351;SDS011;59159;51.652;4.864;2023-05-07T03:47:05;5.05;;;1.45;;
71351;SDS011;59159;51.652;4.864;2023-05-07T03:49:31;3.73;;;1.30;;
71351;SDS011;59159;51.652;4.864;2023-05-07T03:51:57;3.15;;;1.00;;
71351;SDS011;59159;51.652;4.864;2023-05-07T03:54:23;3.92;;;1.30;;
71351;SDS011;59159;51.652;4.864;2023-05-07T03:56:49;4.10;;;1.30;;
71351;SDS011;59159;51.652;4.864;2023-05-07T03:59:15;4.10;;;1.17;;
71351;SDS011;59159;51.652;4.864;2023-05-07T04:01:41;4.05;;;1.25;;
71351;SDS011;59159;51.652;4.864;2023-05-07T04:04:07;5.45;;;1.40;;
71351;SDS011;59159;51.652;4.864;2023-05-07T04:06:33;4.67;;;1.37;;
71351;SDS011;59159;51.652;4.864;2023-05-07T04:08:59;3.75;;;1.10;;
71351;SDS011;59159;51.652;4.864;2023-05-07T04:11:26;4.07;;;1.15;;
71351;SDS011;59159;51.652;4.864;2023-05-07T04:13:52;3.73;;;1.20;;
71351;SDS011;59159;51.652;4.864;2023-05-07T04:16:18;4.05;;;1.35;;
71351;SDS011;59159;51.652;4.864;2023-05-07T04:18:44;3.75;;;1.20;;
71351;SDS011;59159;51.652;4.864;2023-05-07T04:21:16;4.60;;;1.20;;
71351;SDS011;59159;51.652;4.864;2023-05-07T04:23:42;3.35;;;1.20;;
71351;SDS011;59159;51.652;4.864;2023-05-07T04:26:08;5.78;;;1.40;;
71351;SDS011;59159;51.652;4.864;2023-05-07T04:28:35;3.70;;;1.27;;
71351;SDS011;59159;51.652;4.864;2023-05-07T04:31:01;4.30;;;1.53;;
71351;SDS011;59159;51.652;4.864;2023-05-07T04:33:28;5.00;;;1.30;;
71351;SDS011;59159;51.652;4.864;2023-05-07T04:35:54;3.72;;;1.10;;
71351;SDS011;59159;51.652;4.864;2023-05-07T04:38:20;3.60;;;1.20;;
71351;SDS011;59159;51.652;4.864;2023-05-07T04:40:46;4.30;;;1.20;;
71351;SDS011;59159;51.652;4.864;2023-05-07T04:43:12;3.80;;;1.30;;
71351;SDS011;59159;51.652;4.864;2023-05-07T04:45:38;4.70;;;1.30;;
71351;SDS011;59159;51.652;4.864;2023-05-07T04:48:06;3.65;;;1.00;;
71351;SDS011;59159;51.652;4.864;2023-05-07T04:50:32;4.25;;;1.20;;
71351;SDS011;59159;51.652;4.864;2023-05-07T04:52:58;4.28;;;1.30;;
71351;SDS011;59159;51.652;4.864;2023-05-07T04:55:24;3.40;;;1.10;;
71351;SDS011;59159;51.652;4.864;2023-05-07T04:57:50;5.93;;;1.60;;
71351;SDS011;59159;51.652;4.864;2023-05-07T05:00:17;4.25;;;1.45;;
71351;SDS011;59159;51.652;4.864;2023-05-07T05:02:44;3.93;;;1.40;;
71351;SDS011;59159;51.652;4.864;2023-05-07T05:05:10;5.13;;;1.52;;
71351;SDS011;59159;51.652;4.864;2023-05-07T05:07:36;4.25;;;1.30;;
71351;SDS011;59159;51.652;4.864;2023-05-07T05:10:03;3.70;;;1.23;;
71351;SDS011;59159;51.652;4.864;2023-05-07T05:12:29;3.63;;;1.20;;
71351;SDS011;59159;51.652;4.864;2023-05-07T05:14:55;3.58;;;1.20;;
71351;SDS011;59159;51.652;4.864;2023-05-07T05:17:21;5.78;;;1.70;;
71351;SDS011;59159;51.652;4.864;2023-05-07T05:19:47;5.00;;;1.57;;
71351;SDS011;59159;51.652;4.864;2023-05-07T05:22:13;4.97;;;1.45;;
71351;SDS011;59159;51.652;4.864;2023-05-07T05:24:40;4.10;;;1.50;;
71351;SDS011;59159;51.652;4.864;2023-05-07T05:27:06;4.07;;;1.30;;
71351;SDS011;59159;51.652;4.864;2023-05-07T05:29:32;6.00;;;2.25;;
71351;SDS011;59159;51.652;4.864;2023-05-07T05:31:58;7.65;;;4.05;;
71351;SDS011;59159;51.652;4.864;2023-05-07T05:34:24;6.53;;;3.50;;
71351;SDS011;59159;51.652;4.864;2023-05-07T05:36:50;8.00;;;4.07;;
71351;SDS011;59159;51.652;4.864;2023-05-07T05:39:16;9.90;;;4.72;;
71351;SDS011;59159;51.652;4.864;2023-05-07T05:41:42;8.30;;;4.03;;
71351;SDS011;59159;51.652;4.864;2023-05-07T05:44:08;8.40;;;3.73;;
71351;SDS011;59159;51.652;4.864;2023-05-07T05:46:34;7.65;;;4.25;;
71351;SDS011;59159;51.652;4.864;2023-05-07T05:49:00;8.52;;;4.70;;
71351;SDS011;59159;51.652;4.864;2023-05-07T05:51:26;8.93;;;5.10;;
71351;SDS011;59159;51.652;4.864;2023-05-07T05:53:52;7.65;;;4.40;;
71351;SDS011;59159;51.652;4.864;2023-05-07T05:56:19;8.90;;;4.97;;
71351;SDS011;59159;51.652;4.864;2023-05-07T05:58:46;9.07;;;5.13;;
71351;SDS011;59159;51.652;4.864;2023-05-07T06:01:12;7.43;;;4.40;;
71351;SDS011;59159;51.652;4.864;2023-05-07T06:03:38;9.35;;;5.05;;
71351;SDS011;59159;51.652;4.864;2023-05-07T06:06:04;8.40;;;4.95;;
71351;SDS011;59159;51.652;4.864;2023-05-07T06:08:30;7.90;;;4.53;;
71351;SDS011;59159;51.652;4.864;2023-05-07T06:10:56;9.30;;;5.38;;
71351;SDS011;59159;51.652;4.864;2023-05-07T06:13:22;9.35;;;5.63;;
71351;SDS011;59159;51.652;4.864;2023-05-07T06:15:49;8.80;;;4.77;;
71351;SDS011;59159;51.652;4.864;2023-05-07T06:18:15;8.68;;;5.47;;
71351;SDS011;59159;51.652;4.864;2023-05-07T06:20:41;10.48;;;5.70;;
71351;SDS011;59159;51.652;4.864;2023-05-07T06:23:07;8.93;;;5.47;;
71351;SDS011;59159;51.652;4.864;2023-05-07T06:25:33;9.70;;;5.85;;
71351;SDS011;59159;51.652;4.864;2023-05-07T06:27:59;9.45;;;5.85;;
71351;SDS011;59159;51.652;4.864;2023-05-07T06:30:25;9.20;;;4.80;;
71351;SDS011;59159;51.652;4.864;2023-05-07T06:32:51;9.90;;;5.10;;
71351;SDS011;59159;51.652;4.864;2023-05-07T06:35:17;8.38;;;4.85;;
71351;SDS011;59159;51.652;4.864;2023-05-07T06:37:44;8.55;;;4.57;;
71351;SDS011;59159;51.652;4.864;2023-05-07T06:40:10;8.47;;;4.27;;
71351;SDS011;59159;51.652;4.864;2023-05-07T06:42:36;8.77;;;4.03;;
71351;SDS011;59159;51.652;4.864;2023-05-07T06:45:02;9.00;;;4.03;;
71351;SDS011;59159;51.652;4.864;2023-05-07T06:47:29;7.73;;;3.43;;
71351;SDS011;59159;51.652;4.864;2023-05-07T06:49:55;10.07;;;4.20;;
71351;SDS011;59159;51.652;4.864;2023-05-07T06:52:21;8.20;;;3.58;;
71351;SDS011;59159;51.652;4.864;2023-05-07T06:54:47;7.57;;;3.83;;
71351;SDS011;59159;51.652;4.864;2023-05-07T06:57:13;6.93;;;3.40;;
71351;SDS011;59159;51.652;4.864;2023-05-07T06:59:39;7.90;;;3.70;;
71351;SDS011;59159;51.652;4.864;2023-05-07T07:02:05;7.93;;;3.47;;
71351;SDS011;59159;51.652;4.864;2023-05-07T07:04:31;7.67;;;3.33;;
71351;SDS011;59159;51.652;4.864;2023-05-07T07:06:57;6.47;;;2.78;;
71351;SDS011;59159;51.652;4.864;2023-05-07T07:09:23;7.60;;;3.40;;
71351;SDS011;59159;51.652;4.864;2023-05-07T07:11:49;7.03;;;2.77;;
71351;SDS011;59159;51.652;4.864;2023-05-07T07:14:15;7.22;;;2.53;;
71351;SDS011;59159;51.652;4.864;2023-05-07T07:16:41;6.55;;;3.17;;
71351;SDS011;59159;51.652;4.864;2023-05-07T07:19:07;7.20;;;3.25;;
71351;SDS011;59159;51.652;4.864;2023-05-07T07:21:33;6.67;;;3.03;;
71351;SDS011;59159;51.652;4.864;2023-05-07T07:23:59;8.32;;;2.92;;
71351;SDS011;59159;51.652;4.864;2023-05-07T07:26:25;8.20;;;3.20;;
71351;SDS011;59159;51.652;4.864;2023-05-07T07:28:51;7.27;;;3.30;;
71351;SDS011;59159;51.652;4.864;2023-05-07T07:31:17;9.43;;;3.33;;
71351;SDS011;59159;51.652;4.864;2023-05-07T07:33:43;7.55;;;3.00;;
71351;SDS011;59159;51.652;4.864;2023-05-07T07:36:09;6.37;;;3.20;;
71351;SDS011;59159;51.652;4.864;2023-05-07T07:38:35;7.15;;;2.85;;
71351;SDS011;59159;51.652;4.864;2023-05-07T07:41:01;7.75;;;3.30;;
71351;SDS011;59159;51.652;4.864;2023-05-07T07:43:28;7.80;;;3.20;;
71351;SDS011;59159;51.652;4.864;2023-05-07T07:45:54;5.97;;;2.43;;
71351;SDS011;59159;51.652;4.864;2023-05-07T07:48:20;5.97;;;2.60;;
71351;SDS011;59159;51.652;4.864;2023-05-07T07:50:48;6.47;;;2.88;;
71351;SDS011;59159;51.652;4.864;2023-05-07T07:53:15;7.70;;;2.50;;
71351;SDS011;59159;51.652;4.864;2023-05-07T07:55:41;5.82;;;2.40;;
71351;SDS011;59159;51.652;4.864;2023-05-07T07:58:07;7.15;;;2.47;;
71351;SDS011;59159;51.652;4.864;2023-05-07T08:00:33;6.50;;;2.37;;
71351;SDS011;59159;51.652;4.864;2023-05-07T08:02:58;6.20;;;2.40;;
71351;SDS011;59159;51.652;4.864;2023-05-07T08:05:25;7.03;;;2.83;;
71351;SDS011;59159;51.652;4.864;2023-05-07T08:07:51;7.57;;;2.80;;
71351;SDS011;59159;51.652;4.864;2023-05-07T08:10:18;6.80;;;2.77;;
71351;SDS011;59159;51.652;4.864;2023-05-07T08:12:50;6.32;;;2.95;;
71351;SDS011;59159;51.652;4.864;2023-05-07T08:15:16;6.53;;;2.55;;
71351;SDS011;59159;51.652;4.864;2023-05-07T08:17:42;6.83;;;2.77;;
71351;SDS011;59159;51.652;4.864;2023-05-07T08:20:09;7.38;;;3.08;;
71351;SDS011;59159;51.652;4.864;2023-05-07T08:22:35;7.10;;;2.80;;
71351;SDS011;59159;51.652;4.864;2023-05-07T08:25:02;7.70;;;3.17;;
71351;SDS011;59159;51.652;4.864;2023-05-07T08:27:28;6.57;;;3.33;;
71351;SDS011;59159;51.652;4.864;2023-05-07T08:29:54;7.13;;;2.97;;
71351;SDS011;59159;51.652;4.864;2023-05-07T08:32:20;7.25;;;2.80;;
71351;SDS011;59159;51.652;4.864;2023-05-07T08:34:47;6.20;;;2.30;;
71351;SDS011;59159;51.652;4.864;2023-05-07T08:37:13;5.78;;;2.20;;
71351;SDS011;59159;51.652;4.864;2023-05-07T08:39:39;6.80;;;2.60;;
71351;SDS011;59159;51.652;4.864;2023-05-07T08:42:05;5.67;;;2.50;;
71351;SDS011;59159;51.652;4.864;2023-05-07T08:44:33;6.38;;;2.50;;
71351;SDS011;59159;51.652;4.864;2023-05-07T08:47:02;7.00;;;2.30;;
71351;SDS011;59159;51.652;4.864;2023-05-07T08:49:28;5.87;;;2.80;;
71351;SDS011;59159;51.652;4.864;2023-05-07T08:51:54;12.95;;;6.82;;
71351;SDS011;59159;51.652;4.864;2023-05-07T08:54:21;13.15;;;8.02;;
71351;SDS011;59159;51.652;4.864;2023-05-07T08:56:47;14.50;;;7.68;;
71351;SDS011;59159;51.652;4.864;2023-05-07T08:59:13;10.40;;;6.80;;
71351;SDS011;59159;51.652;4.864;2023-05-07T09:01:39;15.02;;;8.65;;
71351;SDS011;59159;51.652;4.864;2023-05-07T09:04:05;13.18;;;8.73;;
71351;SDS011;59159;51.652;4.864;2023-05-07T09:06:32;11.07;;;6.80;;
71351;SDS011;59159;51.652;4.864;2023-05-07T09:08:58;16.05;;;9.63;;
71351;SDS011;59159;51.652;4.864;2023-05-07T09:11:26;14.43;;;8.23;;
71351;SDS011;59159;51.652;4.864;2023-05-07T09:13:55;14.60;;;8.13;;
71351;SDS011;59159;51.652;4.864;2023-05-07T09:16:23;13.38;;;8.32;;
71351;SDS011;59159;51.652;4.864;2023-05-07T09:18:53;12.40;;;8.40;;
71351;SDS011;59159;51.652;4.864;2023-05-07T09:21:19;15.40;;;8.98;;
71351;SDS011;59159;51.652;4.864;2023-05-07T09:23:47;13.20;;;8.70;;
71351;SDS011;59159;51.652;4.864;2023-05-07T09:26:14;15.10;;;9.90;;
71351;SDS011;59159;51.652;4.864;2023-05-07T09:28:41;12.98;;;7.93;;
71351;SDS011;59159;51.652;4.864;2023-05-07T09:31:07;10.10;;;6.33;;
71351;SDS011;59159;51.652;4.864;2023-05-07T09:33:33;11.73;;;7.75;;
71351;SDS011;59159;51.652;4.864;2023-05-07T09:36:02;10.43;;;6.68;;
71351;SDS011;59159;51.652;4.864;2023-05-07T09:38:28;13.23;;;6.00;;
71351;SDS011;59159;51.652;4.864;2023-05-07T09:41:10;9.93;;;5.40;;
71351;SDS011;59159;51.652;4.864;2023-05-07T09:43:37;8.80;;;4.65;;
71351;SDS011;59159;51.652;4.864;2023-05-07T09:46:06;10.43;;;4.45;;
71351;SDS011;59159;51.652;4.864;2023-05-07T09:48:34;8.83;;;5.03;;
71351;SDS011;59159;51.652;4.864;2023-05-07T09:51:02;10.25;;;5.38;;
71351;SDS011;59159;51.652;4.864;2023-05-07T09:53:29;10.60;;;5.38;;
71351;SDS011;59159;51.652;4.864;2023-05-07T09:55:56;9.00;;;5.00;;
71351;SDS011;59159;51.652;4.864;2023-05-07T09:58:23;10.68;;;4.68;;
71351;SDS011;59159;51.652;4.864;2023-05-07T10:00:49;8.25;;;4.72;;
71351;SDS011;59159;51.652;4.864;2023-05-07T10:03:16;8.53;;;4.43;;
71351;SDS011;59159;51.652;4.864;2023-05-07T10:05:43;8.23;;;4.47;;
71351;SDS011;59159;51.652;4.864;2023-05-07T10:08:09;7.90;;;4.05;;
71351;SDS011;59159;51.652;4.864;2023-05-07T10:10:35;10.95;;;3.85;;
71351;SDS011;59159;51.652;4.864;2023-05-07T10:13:02;8.03;;;3.90;;
71351;SDS011;59159;51.652;4.864;2023-05-07T10:15:30;6.68;;;3.47;;
71351;SDS011;59159;51.652;4.864;2023-05-07T10:17:57;9.98;;;3.53;;
71351;SDS011;59159;51.652;4.864;2023-05-07T10:20:23;8.53;;;3.30;;
71351;SDS011;59159;51.652;4.864;2023-05-07T10:22:49;8.82;;;3.20;;
71351;SDS011;59159;51.652;4.864;2023-05-07T10:25:17;11.23;;;3.80;;
71351;SDS011;59159;51.652;4.864;2023-05-07T10:27:44;8.57;;;3.20;;
71351;SDS011;59159;51.652;4.864;2023-05-07T10:30:15;5.97;;;2.63;;
71351;SDS011;59159;51.652;4.864;2023-05-07T10:32:47;8.80;;;2.75;;
71351;SDS011;59159;51.652;4.864;2023-05-07T10:35:26;7.03;;;2.70;;
71351;SDS011;59159;51.652;4.864;2023-05-07T10:37:55;7.03;;;2.77;;
71351;SDS011;59159;51.652;4.864;2023-05-07T10:40:21;7.80;;;3.30;;
71351;SDS011;59159;51.652;4.864;2023-05-07T10:42:57;6.30;;;2.38;;
71351;SDS011;59159;51.652;4.864;2023-05-07T10:45:25;8.33;;;2.60;;
71351;SDS011;59159;51.652;4.864;2023-05-07T10:48:07;7.35;;;2.58;;
71351;SDS011;59159;51.652;4.864;2023-05-07T10:50:34;8.18;;;2.90;;
71351;SDS011;59159;51.652;4.864;2023-05-07T10:55:48;6.72;;;2.35;;
71351;SDS011;59159;51.652;4.864;2023-05-07T11:00:48;6.47;;;2.50;;
71351;SDS011;59159;51.652;4.864;2023-05-07T11:03:14;9.90;;;2.23;;
71351;SDS011;59159;51.652;4.864;2023-05-07T11:05:41;7.20;;;2.63;;
71351;SDS011;59159;51.652;4.864;2023-05-07T11:08:07;7.40;;;2.28;;
71351;SDS011;59159;51.652;4.864;2023-05-07T11:13:19;7.65;;;2.55;;
71351;SDS011;59159;51.652;4.864;2023-05-07T11:16:05;7.50;;;2.20;;
71351;SDS011;59159;51.652;4.864;2023-05-07T11:18:47;5.97;;;2.00;;
71351;SDS011;59159;51.652;4.864;2023-05-07T11:21:31;8.38;;;2.58;;
71351;SDS011;59159;51.652;4.864;2023-05-07T11:23:57;6.70;;;2.22;;
71351;SDS011;59159;51.652;4.864;2023-05-07T11:26:23;5.65;;;2.10;;
71351;SDS011;59159;51.652;4.864;2023-05-07T11:28:50;5.90;;;1.83;;
71351;SDS011;59159;51.652;4.864;2023-05-07T11:31:20;6.30;;;2.42;;
71351;SDS011;59159;51.652;4.864;2023-05-07T11:33:47;5.25;;;1.88;;
71351;SDS011;59159;51.652;4.864;2023-05-07T11:36:13;5.90;;;2.17;;
71351;SDS011;59159;51.652;4.864;2023-05-07T11:38:39;5.03;;;2.17;;
71351;SDS011;59159;51.652;4.864;2023-05-07T11:41:05;6.05;;;1.92;;
71351;SDS011;59159;51.652;4.864;2023-05-07T11:43:31;5.00;;;1.93;;
71351;SDS011;59159;51.652;4.864;2023-05-07T11:46:08;6.55;;;2.70;;
71351;SDS011;59159;51.652;4.864;2023-05-07T11:48:34;5.55;;;2.00;;
71351;SDS011;59159;51.652;4.864;2023-05-07T11:51:00;6.05;;;2.13;;
71351;SDS011;59159;51.652;4.864;2023-05-07T11:53:27;6.73;;;1.87;;
71351;SDS011;59159;51.652;4.864;2023-05-07T11:55:56;5.53;;;2.08;;
71351;SDS011;59159;51.652;4.864;2023-05-07T11:58:23;6.50;;;1.63;;
71351;SDS011;59159;51.652;4.864;2023-05-07T12:00:53;5.37;;;1.80;;
71351;SDS011;59159;51.652;4.864;2023-05-07T12:03:19;5.13;;;2.00;;
71351;SDS011;59159;51.652;4.864;2023-05-07T12:05:46;5.53;;;1.80;;
71351;SDS011;59159;51.652;4.864;2023-05-07T12:08:18;5.10;;;2.00;;
71351;SDS011;59159;51.652;4.864;2023-05-07T12:10:47;4.53;;;1.65;;
71351;SDS011;59159;51.652;4.864;2023-05-07T12:13:20;6.18;;;2.53;;
71351;SDS011;59159;51.652;4.864;2023-05-07T12:15:46;5.22;;;1.75;;
71351;SDS011;59159;51.652;4.864;2023-05-07T12:18:12;5.43;;;1.80;;
71351;SDS011;59159;51.652;4.864;2023-05-07T12:20:38;5.47;;;1.75;;
71351;SDS011;59159;51.652;4.864;2023-05-07T12:23:05;4.82;;;1.92;;
71351;SDS011;59159;51.652;4.864;2023-05-07T12:25:34;6.00;;;1.90;;
71351;SDS011;59159;51.652;4.864;2023-05-07T12:28:03;5.32;;;2.08;;
71351;SDS011;59159;51.652;4.864;2023-05-07T12:30:36;6.93;;;2.15;;
71351;SDS011;59159;51.652;4.864;2023-05-07T12:33:03;5.47;;;1.87;;
71351;SDS011;59159;51.652;4.864;2023-05-07T12:35:32;6.10;;;1.92;;
71351;SDS011;59159;51.652;4.864;2023-05-07T12:38:01;4.90;;;1.73;;
71351;SDS011;59159;51.652;4.864;2023-05-07T12:40:52;4.78;;;1.83;;
71351;SDS011;59159;51.652;4.864;2023-05-07T12:43:20;5.53;;;1.73;;
71351;SDS011;59159;51.652;4.864;2023-05-07T12:45:46;6.70;;;2.08;;
71351;SDS011;59159;51.652;4.864;2023-05-07T12:48:13;5.63;;;2.00;;
71351;SDS011;59159;51.652;4.864;2023-05-07T12:50:40;5.23;;;1.67;;
71351;SDS011;59159;51.652;4.864;2023-05-07T12:53:07;5.22;;;1.55;;
71351;SDS011;59159;51.652;4.864;2023-05-07T12:55:46;4.78;;;1.58;;
71351;SDS011;59159;51.652;4.864;2023-05-07T12:58:19;7.87;;;2.00;;
71351;SDS011;59159;51.652;4.864;2023-05-07T13:00:47;5.40;;;1.58;;
71351;SDS011;59159;51.652;4.864;2023-05-07T13:03:17;4.70;;;1.77;;
71351;SDS011;59159;51.652;4.864;2023-05-07T13:05:46;5.43;;;1.83;;
71351;SDS011;59159;51.652;4.864;2023-05-07T13:08:12;5.27;;;1.80;;
71351;SDS011;59159;51.652;4.864;2023-05-07T13:10:38;5.22;;;1.60;;
71351;SDS011;59159;51.652;4.864;2023-05-07T13:13:04;4.97;;;1.63;;
71351;SDS011;59159;51.652;4.864;2023-05-07T13:15:30;6.70;;;2.60;;
71351;SDS011;59159;51.652;4.864;2023-05-07T13:17:56;7.72;;;3.33;;
71351;SDS011;59159;51.652;4.864;2023-05-07T13:20:22;7.72;;;4.22;;
71351;SDS011;59159;51.652;4.864;2023-05-07T13:22:48;8.47;;;4.40;;
71351;SDS011;59159;51.652;4.864;2023-05-07T13:25:14;10.02;;;5.10;;
71351;SDS011;59159;51.652;4.864;2023-05-07T13:27:40;10.20;;;5.22;;
71351;SDS011;59159;51.652;4.864;2023-05-07T13:30:06;9.68;;;5.95;;
71351;SDS011;59159;51.652;4.864;2023-05-07T13:32:32;11.07;;;6.10;;
71351;SDS011;59159;51.652;4.864;2023-05-07T13:34:58;11.10;;;6.63;;
71351;SDS011;59159;51.652;4.864;2023-05-07T13:37:25;11.55;;;6.78;;
71351;SDS011;59159;51.652;4.864;2023-05-07T13:39:51;10.30;;;6.53;;
71351;SDS011;59159;51.652;4.864;2023-05-07T13:42:17;10.63;;;5.97;;
71351;SDS011;59159;51.652;4.864;2023-05-07T13:44:43;10.75;;;5.60;;
71351;SDS011;59159;51.652;4.864;2023-05-07T13:47:09;9.80;;;6.23;;
71351;SDS011;59159;51.652;4.864;2023-05-07T13:49:35;10.23;;;4.38;;
71351;SDS011;59159;51.652;4.864;2023-05-07T13:52:01;13.63;;;6.28;;
71351;SDS011;59159;51.652;4.864;2023-05-07T13:54:27;12.23;;;6.20;;
71351;SDS011;59159;51.652;4.864;2023-05-07T13:56:53;12.97;;;6.90;;
71351;SDS011;59159;51.652;4.864;2023-05-07T13:59:19;11.00;;;6.63;;
71351;SDS011;59159;51.652;4.864;2023-05-07T14:01:45;12.90;;;6.50;;
71351;SDS011;59159;51.652;4.864;2023-05-07T14:04:12;11.57;;;6.00;;
71351;SDS011;59159;51.652;4.864;2023-05-07T14:06:38;10.50;;;5.70;;
71351;SDS011;59159;51.652;4.864;2023-05-07T14:09:04;12.45;;;7.07;;
71351;SDS011;59159;51.652;4.864;2023-05-07T14:11:30;11.80;;;6.80;;
71351;SDS011;59159;51.652;4.864;2023-05-07T14:13:56;12.88;;;6.95;;
71351;SDS011;59159;51.652;4.864;2023-05-07T14:16:23;12.27;;;5.90;;
71351;SDS011;59159;51.652;4.864;2023-05-07T14:18:49;9.93;;;5.50;;
71351;SDS011;59159;51.652;4.864;2023-05-07T14:21:15;12.20;;;5.57;;
71351;SDS011;59159;51.652;4.864;2023-05-07T14:23:41;13.98;;;7.40;;
71351;SDS011;59159;51.652;4.864;2023-05-07T14:26:07;11.75;;;7.35;;
71351;SDS011;59159;51.652;4.864;2023-05-07T14:28:33;10.33;;;5.93;;
71351;SDS011;59159;51.652;4.864;2023-05-07T14:30:59;10.98;;;5.80;;
71351;SDS011;59159;51.652;4.864;2023-05-07T14:33:25;12.27;;;7.25;;
71351;SDS011;59159;51.652;4.864;2023-05-07T14:35:51;16.07;;;8.43;;
71351;SDS011;59159;51.652;4.864;2023-05-07T14:38:17;16.23;;;8.85;;
71351;SDS011;59159;51.652;4.864;2023-05-07T14:40:44;14.57;;;8.45;;
71351;SDS011;59159;51.652;4.864;2023-05-07T14:43:10;16.15;;;7.53;;
71351;SDS011;59159;51.652;4.864;2023-05-07T14:45:36;14.63;;;7.63;;
71351;SDS011;59159;51.652;4.864;2023-05-07T14:48:02;17.10;;;9.52;;
71351;SDS011;59159;51.652;4.864;2023-05-07T14:50:28;13.63;;;7.60;;
71351;SDS011;59159;51.652;4.864;2023-05-07T14:52:54;14.57;;;7.10;;
71351;SDS011;59159;51.652;4.864;2023-05-07T14:55:20;11.40;;;6.72;;